Time;durP1;ratioP1;P1;durP2;ratioP2;P2;SDS_P1;SDS_P2;PMS_P1;PMS_P2;Temp;Humidity;BMP_temperature;BMP_pressure;BME280_temperature;BME280_humidity;BME280_pressure;Samples;Min_cycle;Max_cycle;Signal;HPM_P1;HPM_P2
2023/06/15 00:00:33;;;;;;;5.68;5.22;;;;;;;;;;5053385;28;20044;-62
2023/06/15 00:02:58;;;;;;;4.90;4.60;;;;;;;;;;5053003;28;20067;-66
2023/06/15 00:05:25;;;;;;;5.90;5.35;;;;;;;;;;5052745;28;20033;-66
2023/06/15 00:07:51;;;;;;;5.38;4.97;;;;;;;;;;5052357;28;20072;-67
2023/06/15 00:10:17;;;;;;;6.10;5.60;;;;;;;;;;5053761;28;20052;-68
2023/06/15 00:12:42;;;;;;;5.90;5.25;;;;;;;;;;5053408;28;20041;-67
2023/06/15 00:15:08;;;;;;;4.95;4.63;;;;;;;;;;5053467;28;20041;-67
2023/06/15 00:17:37;;;;;;;4.80;4.40;;;;;;;;;;5053304;28;20484;-67
2023/06/15 00:20:04;;;;;;;4.75;4.40;;;;;;;;;;5052767;28;20115;-67
2023/06/15 00:22:29;;;;;;;4.22;4.03;;;;;;;;;;5053401;28;20365;-65
2023/06/15 00:24:55;;;;;;;4.45;4.05;;;;;;;;;;5053272;28;20048;-65
2023/06/15 00:27:20;;;;;;;4.63;4.22;;;;;;;;;;5035634;28;20566;-66
2023/06/15 00:29:46;;;;;;;4.47;4.18;;;;;;;;;;5053412;28;20534;-67
2023/06/15 00:32:11;;;;;;;4.38;4.07;;;;;;;;;;5034959;28;20385;-66
2023/06/15 00:34:36;;;;;;;4.55;4.25;;;;;;;;;;5053131;28;20025;-65
2023/06/15 00:37:02;;;;;;;4.43;4.13;;;;;;;;;;5035563;28;20519;-64
2023/06/15 00:39:27;;;;;;;4.43;4.13;;;;;;;;;;5052985;28;20044;-64
2023/06/15 00:41:52;;;;;;;4.95;4.57;;;;;;;;;;5053011;28;20501;-64
2023/06/15 00:44:19;;;;;;;4.25;3.95;;;;;;;;;;5037385;28;20040;-64
2023/06/15 00:46:45;;;;;;;4.35;4.05;;;;;;;;;;5056857;28;20388;-64
2023/06/15 00:49:11;;;;;;;4.90;3.95;;;;;;;;;;5038874;28;20128;-64
2023/06/15 00:51:41;;;;;;;4.20;4.00;;;;;;;;;;5039209;28;20116;-66
2023/06/15 00:54:07;;;;;;;4.38;4.10;;;;;;;;;;5056675;28;20396;-65
2023/06/15 00:56:32;;;;;;;4.85;4.45;;;;;;;;;;5056495;28;20033;-65
2023/06/15 00:58:58;;;;;;;4.38;4.07;;;;;;;;;;5056494;28;20037;-65
2023/06/15 01:01:25;;;;;;;4.63;4.35;;;;;;;;;;5056339;28;20037;-65
2023/06/15 01:03:51;;;;;;;4.47;4.07;;;;;;;;;;5056464;28;20401;-66
2023/06/15 01:06:19;;;;;;;4.07;3.85;;;;;;;;;;5056233;28;20118;-65
2023/06/15 01:08:47;;;;;;;4.07;3.73;;;;;;;;;;5039497;28;20124;-65
2023/06/15 01:11:14;;;;;;;3.70;3.47;;;;;;;;;;5054267;28;20053;-64
2023/06/15 01:13:40;;;;;;;3.70;3.47;;;;;;;;;;5056156;28;20065;-64
2023/06/15 01:16:07;;;;;;;6.22;4.70;;;;;;;;;;5054546;28;20083;-64
2023/06/15 01:18:33;;;;;;;4.68;4.10;;;;;;;;;;5056205;28;20037;-64
2023/06/15 01:21:01;;;;;;;5.07;4.50;;;;;;;;;;5048323;28;20044;-61
2023/06/15 01:23:33;;;;;;;4.93;4.53;;;;;;;;;;5054493;28;20037;-61
2023/06/15 01:26:05;;;;;;;5.28;4.78;;;;;;;;;;5055980;28;20087;-60
2023/06/15 01:28:31;;;;;;;5.25;4.80;;;;;;;;;;5054632;28;20052;-60
2023/06/15 01:30:59;;;;;;;6.22;5.13;;;;;;;;;;5055903;28;20376;-60
2023/06/15 01:33:24;;;;;;;7.32;5.43;;;;;;;;;;5054630;28;20045;-64
2023/06/15 01:35:50;;;;;;;8.35;5.80;;;;;;;;;;5054583;28;20054;-62
2023/06/15 01:38:17;;;;;;;7.70;6.18;;;;;;;;;;5055563;28;20069;-62
2023/06/15 01:40:45;;;;;;;6.88;6.25;;;;;;;;;;5054509;28;20079;-62
2023/06/15 01:43:13;;;;;;;7.65;6.72;;;;;;;;;;5054323;28;20045;-64
2023/06/15 01:45:42;;;;;;;9.38;6.97;;;;;;;;;;5037912;28;20183;-64
2023/06/15 01:48:08;;;;;;;8.00;6.47;;;;;;;;;;5049723;28;20056;-64
2023/06/15 01:50:34;;;;;;;7.93;6.20;;;;;;;;;;5054091;28;20029;-64
2023/06/15 01:52:59;;;;;;;7.13;5.93;;;;;;;;;;5054559;28;20135;-64
2023/06/15 01:55:25;;;;;;;7.45;5.95;;;;;;;;;;5054396;28;20068;-64
2023/06/15 01:57:52;;;;;;;7.65;6.32;;;;;;;;;;5054006;28;20036;-64
2023/06/15 02:00:18;;;;;;;8.63;6.45;;;;;;;;;;5054507;28;20040;-61
2023/06/15 02:02:43;;;;;;;8.15;6.32;;;;;;;;;;5053964;28;20091;-61
2023/06/15 02:05:09;;;;;;;9.68;7.72;;;;;;;;;;5054330;28;20037;-65
2023/06/15 02:07:34;;;;;;;7.63;6.82;;;;;;;;;;5054190;28;20036;-65
2023/06/15 02:10:00;;;;;;;9.00;7.00;;;;;;;;;;5053795;28;20037;-65
2023/06/15 02:12:25;;;;;;;10.43;7.32;;;;;;;;;;5053872;28;20086;-61
2023/06/15 02:14:51;;;;;;;8.25;7.10;;;;;;;;;;5054256;28;20076;-61
2023/06/15 02:17:18;;;;;;;8.13;7.25;;;;;;;;;;5053831;28;20480;-61
2023/06/15 02:19:44;;;;;;;8.25;7.07;;;;;;;;;;5055153;28;20082;-60
2023/06/15 02:22:09;;;;;;;8.65;6.75;;;;;;;;;;5055061;28;20048;-60
2023/06/15 02:24:35;;;;;;;7.20;6.47;;;;;;;;;;5054474;28;20029;-60
2023/06/15 02:27:02;;;;;;;7.55;6.68;;;;;;;;;;5054830;28;20132;-62
2023/06/15 02:29:28;;;;;;;7.60;5.80;;;;;;;;;;5053621;28;20139;-62
2023/06/15 02:31:53;;;;;;;9.43;7.00;;;;;;;;;;5052918;28;20378;-65
2023/06/15 02:34:18;;;;;;;8.93;6.97;;;;;;;;;;5054059;28;20048;-64
2023/06/15 02:36:46;;;;;;;10.88;7.85;;;;;;;;;;5054411;28;20041;-65
2023/06/15 02:39:12;;;;;;;9.75;7.78;;;;;;;;;;5052992;28;20025;-65
2023/06/15 02:41:38;;;;;;;9.55;7.43;;;;;;;;;;5053260;28;20045;-66
2023/06/15 02:44:03;;;;;;;9.35;7.70;;;;;;;;;;5052778;28;20036;-65
2023/06/15 02:46:30;;;;;;;10.48;8.15;;;;;;;;;;5052652;28;20033;-65
2023/06/15 02:48:56;;;;;;;9.43;8.38;;;;;;;;;;5052792;28;20024;-65
2023/06/15 02:51:23;;;;;;;8.00;7.22;;;;;;;;;;5053144;28;20545;-65
2023/06/15 02:53:48;;;;;;;11.05;7.53;;;;;;;;;;5054401;28;20123;-62
2023/06/15 02:56:20;;;;;;;8.75;7.53;;;;;;;;;;5053303;28;20129;-62
2023/06/15 02:58:54;;;;;;;8.07;7.22;;;;;;;;;;5053002;28;20033;-61
2023/06/15 03:01:38;;;;;;;9.18;7.28;;;;;;;;;;5054216;28;20381;-67
2023/06/15 03:04:13;;;;;;;9.25;7.47;;;;;;;;;;5053036;28;20128;-66
2023/06/15 03:06:41;;;;;;;10.52;8.00;;;;;;;;;;5053974;28;20059;-64
2023/06/15 03:09:11;;;;;;;6.90;6.22;;;;;;;;;;5052284;28;20041;-64
2023/06/15 03:11:37;;;;;;;7.75;6.55;;;;;;;;;;5052993;28;20087;-62
2023/06/15 03:14:02;;;;;;;8.55;6.70;;;;;;;;;;5036360;28;20476;-61
2023/06/15 03:16:39;;;;;;;8.20;6.78;;;;;;;;;;5052440;28;20051;-61
2023/06/15 03:19:05;;;;;;;6.93;6.25;;;;;;;;;;5052991;28;20533;-61
2023/06/15 03:21:31;;;;;;;6.82;6.15;;;;;;;;;;5052865;28;20041;-62
2023/06/15 03:23:58;;;;;;;8.32;6.80;;;;;;;;;;5036281;28;20040;-62
2023/06/15 03:26:26;;;;;;;6.60;5.88;;;;;;;;;;5052539;28;20404;-62
2023/06/15 03:28:52;;;;;;;6.78;5.90;;;;;;;;;;5052812;28;20037;-62
2023/06/15 03:31:18;;;;;;;7.70;6.72;;;;;;;;;;5036290;28;20037;-62
2023/06/15 03:33:45;;;;;;;9.80;7.32;;;;;;;;;;5036153;28;20033;-62
2023/06/15 03:36:13;;;;;;;7.57;6.43;;;;;;;;;;5052173;28;20033;-65
2023/06/15 03:38:40;;;;;;;7.80;6.95;;;;;;;;;;5053297;28;20115;-66
2023/06/15 03:41:05;;;;;;;8.75;7.13;;;;;;;;;;5052080;28;20021;-66
2023/06/15 03:43:31;;;;;;;8.50;6.50;;;;;;;;;;5035754;28;20484;-66
2023/06/15 03:45:56;;;;;;;7.40;6.57;;;;;;;;;;5052003;28;20039;-62
2023/06/15 03:48:22;;;;;;;7.10;6.47;;;;;;;;;;5053822;28;20376;-60
2023/06/15 03:50:48;;;;;;;7.53;6.40;;;;;;;;;;5053647;28;20037;-60
2023/06/15 03:53:13;;;;;;;6.90;6.20;;;;;;;;;;5052504;28;20465;-60
2023/06/15 03:55:39;;;;;;;7.75;6.97;;;;;;;;;;5053270;28;20041;-60
2023/06/15 03:58:05;;;;;;;7.25;6.32;;;;;;;;;;5052444;28;20040;-61
2023/06/15 04:00:31;;;;;;;6.90;6.15;;;;;;;;;;5052125;28;20041;-63
2023/06/15 04:02:57;;;;;;;6.93;6.22;;;;;;;;;;5052563;28;20099;-63
2023/06/15 04:05:23;;;;;;;6.20;5.63;;;;;;;;;;5052403;28;20056;-63
2023/06/15 04:07:51;;;;;;;6.68;6.05;;;;;;;;;;5052038;28;20029;-66
2023/06/15 04:10:16;;;;;;;6.35;5.75;;;;;;;;;;5051963;28;20079;-66
2023/06/15 04:12:41;;;;;;;6.03;5.47;;;;;;;;;;5052020;28;20065;-65
2023/06/15 04:15:07;;;;;;;6.28;5.68;;;;;;;;;;5051770;28;20112;-66
2023/06/15 04:17:35;;;;;;;6.43;5.82;;;;;;;;;;5052071;28;20041;-67
2023/06/15 04:20:02;;;;;;;6.05;5.50;;;;;;;;;;5055767;28;20127;-63
2023/06/15 04:22:28;;;;;;;6.20;5.57;;;;;;;;;;5056214;28;20033;-61
2023/06/15 04:24:53;;;;;;;5.63;5.13;;;;;;;;;;5055885;28;20484;-68
2023/06/15 04:27:19;;;;;;;6.13;5.43;;;;;;;;;;5055726;28;20044;-60
2023/06/15 04:29:49;;;;;;;5.15;4.75;;;;;;;;;;5055515;28;20500;-61
2023/06/15 04:32:17;;;;;;;5.30;4.82;;;;;;;;;;5056204;28;20041;-64
2023/06/15 04:34:45;;;;;;;5.50;5.10;;;;;;;;;;5055645;28;20064;-62
2023/06/15 04:37:16;;;;;;;5.35;4.93;;;;;;;;;;5056071;28;20036;-62
2023/06/15 04:39:43;;;;;;;5.10;4.68;;;;;;;;;;5055978;28;20028;-62
2023/06/15 04:42:11;;;;;;;4.50;4.18;;;;;;;;;;5056090;28;20484;-62
2023/06/15 04:44:37;;;;;;;6.25;5.55;;;;;;;;;;5055496;28;20033;-65
2023/06/15 04:47:04;;;;;;;6.18;5.68;;;;;;;;;;5054598;28;20071;-62
2023/06/15 04:49:31;;;;;;;6.00;5.20;;;;;;;;;;5055767;28;20106;-64
2023/06/15 04:51:58;;;;;;;5.85;5.35;;;;;;;;;;5053954;28;20373;-62
2023/06/15 04:54:23;;;;;;;5.22;4.85;;;;;;;;;;5053999;28;20044;-62
2023/06/15 04:56:49;;;;;;;5.50;5.00;;;;;;;;;;5054650;28;20025;-62
2023/06/15 04:59:15;;;;;;;6.80;6.20;;;;;;;;;;5054447;28;20741;-62
2023/06/15 05:01:41;;;;;;;5.60;5.15;;;;;;;;;;5054629;28;20072;-62
2023/06/15 05:04:17;;;;;;;5.78;5.00;;;;;;;;;;5039340;28;20044;-58
2023/06/15 05:06:42;;;;;;;5.55;5.13;;;;;;;;;;5054675;28;20041;-61
2023/06/15 05:09:08;;;;;;;5.93;5.43;;;;;;;;;;5054265;28;20045;-61
2023/06/15 05:11:33;;;;;;;6.15;5.65;;;;;;;;;;5055743;28;20067;-61
2023/06/15 05:13:59;;;;;;;6.55;5.95;;;;;;;;;;5054251;28;20096;-61
2023/06/15 05:16:24;;;;;;;6.38;5.72;;;;;;;;;;5055752;28;20538;-61
2023/06/15 05:18:52;;;;;;;8.48;7.65;;;;;;;;;;5054217;28;20040;-61
2023/06/15 05:21:18;;;;;;;10.52;7.78;;;;;;;;;;5054065;28;20037;-62
2023/06/15 05:23:44;;;;;;;7.15;5.95;;;;;;;;;;5053959;28;20037;-62
2023/06/15 05:26:09;;;;;;;6.90;6.28;;;;;;;;;;5053807;28;20048;-62
2023/06/15 05:28:34;;;;;;;6.60;5.55;;;;;;;;;;5053452;28;20107;-65
2023/06/15 05:31:01;;;;;;;8.20;6.95;;;;;;;;;;5053680;28;20123;-64
2023/06/15 05:33:27;;;;;;;7.47;6.72;;;;;;;;;;5054029;28;20056;-64
2023/06/15 05:35:52;;;;;;;7.65;6.90;;;;;;;;;;5053619;28;20076;-65
2023/06/15 05:38:18;;;;;;;8.82;6.88;;;;;;;;;;5052967;28;20048;-65
2023/06/15 05:40:43;;;;;;;12.85;9.68;;;;;;;;;;5055049;28;20061;-64
2023/06/15 05:43:10;;;;;;;12.10;9.63;;;;;;;;;;5054731;28;20396;-64
2023/06/15 05:45:35;;;;;;;12.90;9.05;;;;;;;;;;5053758;28;20059;-64
2023/06/15 05:48:04;;;;;;;12.85;9.95;;;;;;;;;;5053708;28;20485;-64
2023/06/15 05:50:31;;;;;;;17.05;11.35;;;;;;;;;;5037941;28;20048;-64
2023/06/15 05:52:57;;;;;;;19.70;11.35;;;;;;;;;;5036535;28;20039;-64
2023/06/15 05:55:23;;;;;;;18.55;12.73;;;;;;;;;;5037984;28;20029;-64
2023/06/15 05:57:48;;;;;;;16.35;12.13;;;;;;;;;;5054751;28;20124;-64
2023/06/15 06:00:14;;;;;;;17.38;12.68;;;;;;;;;;5054108;28;20064;-64
2023/06/15 06:02:41;;;;;;;16.40;11.60;;;;;;;;;;5055074;28;20452;-64
2023/06/15 06:05:07;;;;;;;20.02;12.80;;;;;;;;;;5053304;28;20025;-64
2023/06/15 06:07:33;;;;;;;15.18;11.85;;;;;;;;;;5052865;28;20083;-64
2023/06/15 06:09:58;;;;;;;18.23;12.82;;;;;;;;;;5052738;28;20099;-64
2023/06/15 06:12:24;;;;;;;16.55;11.43;;;;;;;;;;5035005;28;20029;-64
2023/06/15 06:14:49;;;;;;;14.18;9.77;;;;;;;;;;5052739;28;20497;-64
2023/06/15 06:17:14;;;;;;;13.95;10.38;;;;;;;;;;5035546;28;20396;-64
2023/06/15 06:19:40;;;;;;;16.67;10.25;;;;;;;;;;5035638;28;20462;-64
2023/06/15 06:22:05;;;;;;;14.20;9.90;;;;;;;;;;5035755;28;20481;-64
2023/06/15 06:24:31;;;;;;;11.20;9.40;;;;;;;;;;5036416;28;20041;-63
2023/06/15 06:26:58;;;;;;;11.80;9.23;;;;;;;;;;5020696;28;20052;-63
2023/06/15 06:29:23;;;;;;;9.75;6.90;;;;;;;;;;5036735;28;20396;-63
2023/06/15 06:31:49;;;;;;;9.55;7.97;;;;;;;;;;5054467;28;20033;-64
2023/06/15 06:34:15;;;;;;;8.93;6.72;;;;;;;;;;5054701;28;20037;-64
2023/06/15 06:36:40;;;;;;;5.55;5.07;;;;;;;;;;5054639;28;20045;-61
2023/06/15 06:39:06;;;;;;;8.98;6.55;;;;;;;;;;5054349;28;20091;-63
2023/06/15 06:41:31;;;;;;;7.05;6.13;;;;;;;;;;5054239;28;20033;-61
2023/06/15 06:43:56;;;;;;;8.50;6.53;;;;;;;;;;5054529;28;20035;-61
2023/06/15 06:46:22;;;;;;;7.18;5.85;;;;;;;;;;5054460;28;20037;-61
2023/06/15 06:48:47;;;;;;;7.07;5.35;;;;;;;;;;5054201;28;20392;-61
2023/06/15 06:51:13;;;;;;;11.18;5.75;;;;;;;;;;5036234;28;20484;-61
2023/06/15 06:53:38;;;;;;;7.13;5.97;;;;;;;;;;5054115;28;20021;-61
2023/06/15 06:56:03;;;;;;;7.30;6.22;;;;;;;;;;5036332;28;20090;-61
2023/06/15 06:58:29;;;;;;;8.38;6.70;;;;;;;;;;5054297;28;20041;-61
2023/06/15 07:00:54;;;;;;;7.57;6.40;;;;;;;;;;5053969;28;20036;-61
2023/06/15 07:03:20;;;;;;;12.57;7.65;;;;;;;;;;5019689;28;20047;-61
2023/06/15 07:05:46;;;;;;;12.32;9.82;;;;;;;;;;5054056;28;20041;-61
2023/06/15 07:08:11;;;;;;;14.70;9.20;;;;;;;;;;5053924;28;20033;-61
2023/06/15 07:10:36;;;;;;;13.23;10.63;;;;;;;;;;5036393;28;20086;-61
2023/06/15 07:13:02;;;;;;;12.63;9.65;;;;;;;;;;5053766;28;20059;-61
2023/06/15 07:15:31;;;;;;;15.70;11.05;;;;;;;;;;5054037;28;20044;-61
2023/06/15 07:17:56;;;;;;;11.13;9.20;;;;;;;;;;5054013;28;20041;-61
2023/06/15 07:20:21;;;;;;;16.85;11.35;;;;;;;;;;5053960;28;20037;-61
2023/06/15 07:22:47;;;;;;;10.50;8.00;;;;;;;;;;5053649;28;20525;-61
2023/06/15 07:25:12;;;;;;;14.98;9.82;;;;;;;;;;5035716;28;20033;-61
2023/06/15 07:27:37;;;;;;;12.68;7.70;;;;;;;;;;5035681;28;20044;-61
2023/06/15 07:30:03;;;;;;;11.60;8.60;;;;;;;;;;5035756;28;20095;-62
2023/06/15 07:32:28;;;;;;;12.77;8.85;;;;;;;;;;5053794;28;20072;-64
2023/06/15 07:34:53;;;;;;;12.38;7.30;;;;;;;;;;5035844;28;20044;-64
2023/06/15 07:37:18;;;;;;;10.77;7.28;;;;;;;;;;5053428;28;20041;-63
2023/06/15 07:39:44;;;;;;;12.70;7.32;;;;;;;;;;5053892;28;20032;-64
2023/06/15 07:42:09;;;;;;;11.18;7.70;;;;;;;;;;5053730;28;20040;-63
2023/06/15 07:44:35;;;;;;;9.45;6.88;;;;;;;;;;5053414;28;20554;-63
2023/06/15 07:47:00;;;;;;;6.75;6.07;;;;;;;;;;5053306;28;20451;-63
2023/06/15 07:49:26;;;;;;;9.40;6.50;;;;;;;;;;5053381;28;20461;-64
2023/06/15 07:51:51;;;;;;;9.70;7.05;;;;;;;;;;5054447;28;20082;-64
2023/06/15 07:54:16;;;;;;;9.23;7.35;;;;;;;;;;5037892;28;20041;-64
2023/06/15 07:56:44;;;;;;;13.98;9.07;;;;;;;;;;5057397;28;20032;-63
2023/06/15 07:59:09;;;;;;;9.52;7.00;;;;;;;;;;5057346;28;20045;-64
2023/06/15 08:01:34;;;;;;;13.32;7.57;;;;;;;;;;5057319;28;20511;-64
2023/06/15 08:04:00;;;;;;;10.55;8.02;;;;;;;;;;5039494;28;20495;-64
2023/06/15 08:06:25;;;;;;;9.85;6.68;;;;;;;;;;5057173;28;20041;-64
2023/06/15 08:08:50;;;;;;;11.82;7.70;;;;;;;;;;5057029;28;20116;-63
2023/06/15 08:11:16;;;;;;;9.77;7.32;;;;;;;;;;5057163;28;20037;-63
2023/06/15 08:13:42;;;;;;;7.93;5.50;;;;;;;;;;5057597;28;20072;-64
2023/06/15 08:16:07;;;;;;;7.63;5.63;;;;;;;;;;5057063;28;20064;-64
2023/06/15 08:18:33;;;;;;;10.75;6.10;;;;;;;;;;5057019;28;20041;-64
2023/06/15 08:20:58;;;;;;;10.75;6.90;;;;;;;;;;5057216;28;20424;-63
2023/06/15 08:23:23;;;;;;;7.82;6.85;;;;;;;;;;5057206;28;20039;-64
2023/06/15 08:25:52;;;;;;;8.85;7.15;;;;;;;;;;5056797;28;20067;-64
2023/06/15 08:28:17;;;;;;;14.63;9.25;;;;;;;;;;5056834;28;20098;-64
2023/06/15 08:30:42;;;;;;;8.88;5.78;;;;;;;;;;5056785;28;20465;-64
2023/06/15 08:33:08;;;;;;;6.65;5.70;;;;;;;;;;5056753;28;20029;-63
2023/06/15 08:35:33;;;;;;;8.38;6.75;;;;;;;;;;5056704;28;20104;-63
2023/06/15 08:37:58;;;;;;;10.73;6.03;;;;;;;;;;5056649;28;20040;-64
2023/06/15 08:40:24;;;;;;;7.07;6.22;;;;;;;;;;5056685;28;20040;-64
2023/06/15 08:42:50;;;;;;;8.98;7.43;;;;;;;;;;5056579;28;20388;-64
2023/06/15 08:45:15;;;;;;;10.20;7.82;;;;;;;;;;5056508;28;20044;-64
2023/06/15 08:47:42;;;;;;;8.23;7.00;;;;;;;;;;5038483;28;20037;-64
2023/06/15 08:50:07;;;;;;;9.85;6.93;;;;;;;;;;5056467;28;20044;-61
2023/06/15 08:52:33;;;;;;;6.07;5.47;;;;;;;;;;5056668;28;20033;-63
2023/06/15 08:54:59;;;;;;;6.28;5.70;;;;;;;;;;5056358;28;20405;-64
2023/06/15 08:57:25;;;;;;;7.55;4.70;;;;;;;;;;5056599;28;20036;-64
2023/06/15 08:59:51;;;;;;;4.72;4.10;;;;;;;;;;5056512;28;20127;-63
2023/06/15 09:02:23;;;;;;;5.43;4.90;;;;;;;;;;5056245;28;20045;-64
2023/06/15 09:04:52;;;;;;;4.60;4.20;;;;;;;;;;5056142;28;20077;-64
2023/06/15 09:07:17;;;;;;;4.85;4.35;;;;;;;;;;5056308;28;20033;-64
2023/06/15 09:10:01;;;;;;;4.43;4.10;;;;;;;;;;5055948;28;20033;-63
2023/06/15 09:12:27;;;;;;;4.40;4.05;;;;;;;;;;5056305;28;20039;-64
2023/06/15 09:14:52;;;;;;;5.35;4.95;;;;;;;;;;5055955;28;20061;-64
2023/06/15 09:17:19;;;;;;;5.95;5.45;;;;;;;;;;5055948;28;20040;-64
2023/06/15 09:19:45;;;;;;;7.22;5.60;;;;;;;;;;5038467;28;20040;-64
2023/06/15 09:22:10;;;;;;;6.60;6.10;;;;;;;;;;5056094;28;20039;-64
2023/06/15 09:24:38;;;;;;;7.03;6.43;;;;;;;;;;5037895;28;20029;-64
2023/06/15 09:27:13;;;;;;;6.95;6.25;;;;;;;;;;5037878;28;20507;-64
2023/06/15 09:29:38;;;;;;;6.20;5.68;;;;;;;;;;5055949;28;20046;-64
2023/06/15 09:32:04;;;;;;;6.70;6.13;;;;;;;;;;5055643;28;20423;-64
2023/06/15 09:34:29;;;;;;;5.30;4.85;;;;;;;;;;5037759;28;20092;-64
2023/06/15 09:36:55;;;;;;;5.32;4.93;;;;;;;;;;5055545;28;20041;-64
2023/06/15 09:39:22;;;;;;;5.38;4.93;;;;;;;;;;5056077;28;20033;-64
2023/06/15 09:42:00;;;;;;;6.68;6.07;;;;;;;;;;5055763;28;20406;-64
2023/06/15 09:44:26;;;;;;;6.85;6.25;;;;;;;;;;5038409;28;20112;-64
2023/06/15 09:46:52;;;;;;;7.30;6.50;;;;;;;;;;5037403;28;20527;-64
2023/06/15 09:49:21;;;;;;;10.30;8.85;;;;;;;;;;5055310;28;20041;-64
2023/06/15 09:51:48;;;;;;;7.20;6.50;;;;;;;;;;5055574;28;20114;-64
2023/06/15 09:54:14;;;;;;;9.90;7.00;;;;;;;;;;5055306;28;20044;-64
2023/06/15 09:56:40;;;;;;;8.93;8.13;;;;;;;;;;5055159;28;20045;-64
2023/06/15 09:59:06;;;;;;;7.47;6.22;;;;;;;;;;5055129;28;20047;-64
2023/06/15 10:01:34;;;;;;;7.00;6.30;;;;;;;;;;5055355;28;20127;-64
2023/06/15 10:03:59;;;;;;;8.82;7.28;;;;;;;;;;5055038;28;20055;-64
2023/06/15 10:06:26;;;;;;;8.40;7.60;;;;;;;;;;5055178;28;20120;-64
2023/06/15 10:08:55;;;;;;;9.75;8.50;;;;;;;;;;5054931;28;20076;-64
2023/06/15 10:11:21;;;;;;;8.57;7.78;;;;;;;;;;5054897;28;20024;-64
2023/06/15 10:13:47;;;;;;;8.80;7.65;;;;;;;;;;5055397;28;20461;-64
2023/06/15 10:16:13;;;;;;;6.57;6.03;;;;;;;;;;5054188;28;20072;-64
2023/06/15 10:18:39;;;;;;;8.80;7.90;;;;;;;;;;5054755;28;20055;-64
2023/06/15 10:21:05;;;;;;;8.07;6.68;;;;;;;;;;5054734;28;20040;-64
2023/06/15 10:23:31;;;;;;;8.63;7.80;;;;;;;;;;5054950;28;20093;-64
2023/06/15 10:25:59;;;;;;;7.68;6.82;;;;;;;;;;5054857;28;20045;-64
2023/06/15 10:28:25;;;;;;;9.35;8.52;;;;;;;;;;5054870;28;20041;-64
2023/06/15 10:30:57;;;;;;;8.85;8.05;;;;;;;;;;5054551;28;20051;-64
2023/06/15 10:33:22;;;;;;;14.27;9.27;;;;;;;;;;5054501;28;20036;-64
2023/06/15 10:35:53;;;;;;;9.50;8.40;;;;;;;;;;5054466;28;20426;-64
2023/06/15 10:38:27;;;;;;;9.95;9.00;;;;;;;;;;5054696;28;20404;-64
2023/06/15 10:40:53;;;;;;;10.10;7.43;;;;;;;;;;5036513;28;20425;-64
2023/06/15 10:43:19;;;;;;;8.55;7.78;;;;;;;;;;5054285;28;20128;-64
2023/06/15 10:45:45;;;;;;;8.23;7.43;;;;;;;;;;5054191;28;20071;-64
2023/06/15 10:48:19;;;;;;;9.32;8.35;;;;;;;;;;5054222;28;20041;-64
2023/06/15 10:50:53;;;;;;;9.05;8.02;;;;;;;;;;5054710;28;20037;-64
2023/06/15 10:53:25;;;;;;;8.73;7.93;;;;;;;;;;5054391;28;20098;-64
2023/06/15 10:55:58;;;;;;;7.80;7.20;;;;;;;;;;5054339;28;20078;-64
2023/06/15 10:58:27;;;;;;;8.85;7.38;;;;;;;;;;5054042;28;20120;-64
2023/06/15 11:01:08;;;;;;;7.25;6.60;;;;;;;;;;5054045;28;20083;-64
2023/06/15 11:03:35;;;;;;;7.38;6.68;;;;;;;;;;5036113;28;20052;-64
2023/06/15 11:06:06;;;;;;;7.70;6.97;;;;;;;;;;5053801;28;20037;-64
2023/06/15 11:08:41;;;;;;;8.27;7.47;;;;;;;;;;5053976;28;20069;-64
2023/06/15 11:11:08;;;;;;;7.90;7.10;;;;;;;;;;5053828;28;20041;-64
2023/06/15 11:13:34;;;;;;;9.13;6.90;;;;;;;;;;5054029;28;20048;-64
2023/06/15 11:16:08;;;;;;;8.82;7.40;;;;;;;;;;5053742;28;20040;-64
2023/06/15 11:18:34;;;;;;;9.63;7.70;;;;;;;;;;5053724;28;20512;-64
2023/06/15 11:20:59;;;;;;;7.97;7.30;;;;;;;;;;5053623;28;20123;-64
2023/06/15 11:23:26;;;;;;;7.65;6.95;;;;;;;;;;5053915;28;20069;-64
2023/06/15 11:25:54;;;;;;;7.38;6.57;;;;;;;;;;5053819;28;20045;-64
2023/06/15 11:28:22;;;;;;;8.32;7.53;;;;;;;;;;5035535;28;20064;-64
2023/06/15 11:30:57;;;;;;;10.65;7.55;;;;;;;;;;5035693;28;20047;-64
2023/06/15 11:33:27;;;;;;;8.98;7.07;;;;;;;;;;5035653;28;20443;-64
2023/06/15 11:35:52;;;;;;;8.68;7.75;;;;;;;;;;5054032;28;20068;-64
2023/06/15 11:38:20;;;;;;;8.00;7.18;;;;;;;;;;5053468;28;20451;-64
2023/06/15 11:40:47;;;;;;;8.77;7.60;;;;;;;;;;5035662;28;20036;-64
2023/06/15 11:43:13;;;;;;;7.75;7.10;;;;;;;;;;5053445;28;20124;-61
2023/06/15 11:45:49;;;;;;;8.07;7.30;;;;;;;;;;5075883;22;20193;-61
2023/06/15 11:48:14;;;;;;;8.23;7.43;;;;;;;;;;5073679;28;20455;-64
2023/06/15 11:50:43;;;;;;;8.60;7.68;;;;;;;;;;5073385;28;20445;-62
2023/06/15 11:53:13;;;;;;;10.18;8.00;;;;;;;;;;5073376;28;20043;-61
2023/06/15 11:55:42;;;;;;;8.65;7.70;;;;;;;;;;5072098;28;20067;-61
2023/06/15 11:58:08;;;;;;;10.20;9.18;;;;;;;;;;5055694;28;20533;-61
2023/06/15 12:00:33;;;;;;;9.85;8.85;;;;;;;;;;5073309;28;20076;-61
2023/06/15 12:02:59;;;;;;;11.05;9.20;;;;;;;;;;5055309;28;20066;-61
2023/06/15 12:05:25;;;;;;;12.85;10.10;;;;;;;;;;5073296;28;20119;-61
2023/06/15 12:07:50;;;;;;;13.25;10.73;;;;;;;;;;5073193;28;20041;-61
2023/06/15 12:10:17;;;;;;;10.27;9.20;;;;;;;;;;5073175;28;20126;-61
2023/06/15 12:12:46;;;;;;;11.38;10.10;;;;;;;;;;5073471;28;20050;-61
2023/06/15 12:15:12;;;;;;;11.05;9.18;;;;;;;;;;5073154;28;20037;-62
2023/06/15 12:17:37;;;;;;;16.58;11.40;;;;;;;;;;5055154;28;20025;-61
2023/06/15 12:20:08;;;;;;;16.73;13.30;;;;;;;;;;5073090;28;20067;-61
2023/06/15 12:22:40;;;;;;;10.02;8.65;;;;;;;;;;5072885;28;20055;-61
2023/06/15 12:25:06;;;;;;;13.50;9.55;;;;;;;;;;5053076;28;20083;-61
2023/06/15 12:27:31;;;;;;;11.48;9.18;;;;;;;;;;5051047;28;20049;-61
2023/06/15 12:30:12;;;;;;;9.25;7.75;;;;;;;;;;5045188;28;20124;-61
2023/06/15 12:32:44;;;;;;;16.70;12.05;;;;;;;;;;5068411;28;20060;-61
2023/06/15 12:35:24;;;;;;;18.40;14.43;;;;;;;;;;5049429;28;20040;-61
2023/06/15 12:37:50;;;;;;;14.98;11.32;;;;;;;;;;5049350;28;20040;-60
2023/06/15 12:40:21;;;;;;;17.60;14.55;;;;;;;;;;5071490;28;20453;-61
2023/06/15 12:42:57;;;;;;;18.38;13.80;;;;;;;;;;5071373;28;20072;-61
2023/06/15 12:45:22;;;;;;;16.48;13.05;;;;;;;;;;5046431;28;20581;-61
2023/06/15 12:47:49;;;;;;;19.25;13.93;;;;;;;;;;5041007;28;20120;-61
2023/06/15 12:50:15;;;;;;;12.15;9.40;;;;;;;;;;5048593;28;20346;-61
2023/06/15 12:52:40;;;;;;;16.45;13.60;;;;;;;;;;5053322;28;20029;-60
2023/06/15 12:55:06;;;;;;;12.88;10.82;;;;;;;;;;5053105;28;20184;-61
2023/06/15 12:57:31;;;;;;;15.50;12.50;;;;;;;;;;5051505;28;20037;-61
2023/06/15 12:59:57;;;;;;;11.02;9.50;;;;;;;;;;5050094;28;20040;-60
2023/06/15 13:02:24;;;;;;;20.60;13.55;;;;;;;;;;5052257;28;20439;-60
2023/06/15 13:04:51;;;;;;;18.33;12.75;;;;;;;;;;5046355;28;20071;-60
2023/06/15 13:07:17;;;;;;;20.75;14.13;;;;;;;;;;5042825;28;20033;-60
2023/06/15 13:09:42;;;;;;;19.17;14.30;;;;;;;;;;5051945;28;20056;-60
2023/06/15 13:12:08;;;;;;;13.75;10.02;;;;;;;;;;5049726;28;20108;-61
2023/06/15 13:14:34;;;;;;;14.82;10.60;;;;;;;;;;5050542;28;20052;-60
2023/06/15 13:16:59;;;;;;;14.70;9.80;;;;;;;;;;5038806;28;20817;-61
2023/06/15 13:19:24;;;;;;;13.75;10.95;;;;;;;;;;5044811;28;20037;-60
2023/06/15 13:21:50;;;;;;;16.73;13.05;;;;;;;;;;5027403;28;20448;-60
2023/06/15 13:24:15;;;;;;;14.63;10.77;;;;;;;;;;5026258;28;20046;-61
2023/06/15 13:26:41;;;;;;;13.27;11.38;;;;;;;;;;5030230;28;20076;-61
2023/06/15 13:29:06;;;;;;;10.85;9.10;;;;;;;;;;5029673;28;20117;-60
2023/06/15 13:31:32;;;;;;;12.82;9.43;;;;;;;;;;5028002;28;20049;-61
2023/06/15 13:33:57;;;;;;;11.98;10.77;;;;;;;;;;5031936;28;20048;-60
2023/06/15 13:36:23;;;;;;;12.13;8.60;;;;;;;;;;5033608;28;20384;-61
2023/06/15 13:38:48;;;;;;;13.93;10.57;;;;;;;;;;5033872;28;20054;-61
2023/06/15 13:41:14;;;;;;;16.20;12.13;;;;;;;;;;5033308;28;20382;-61
2023/06/15 13:43:40;;;;;;;15.30;12.55;;;;;;;;;;5032047;28;20099;-61
2023/06/15 13:46:06;;;;;;;14.02;10.80;;;;;;;;;;5045337;28;20051;-61
2023/06/15 13:48:31;;;;;;;16.05;12.18;;;;;;;;;;5052728;28;20037;-61
2023/06/15 13:50:56;;;;;;;14.50;12.68;;;;;;;;;;5051408;28;20043;-61
2023/06/15 13:53:22;;;;;;;14.38;12.00;;;;;;;;;;5050189;28;20037;-61
2023/06/15 13:55:47;;;;;;;14.07;11.38;;;;;;;;;;5050290;28;20020;-61
2023/06/15 13:58:13;;;;;;;14.20;12.73;;;;;;;;;;5052094;28;20041;-61
2023/06/15 14:00:38;;;;;;;13.65;11.95;;;;;;;;;;5051009;28;20039;-61
2023/06/15 14:03:04;;;;;;;13.07;11.70;;;;;;;;;;5052291;28;20592;-61
2023/06/15 14:05:29;;;;;;;13.13;11.63;;;;;;;;;;5051801;28;20041;-61
2023/06/15 14:07:55;;;;;;;10.75;9.68;;;;;;;;;;5052377;28;20037;-61
2023/06/15 14:10:20;;;;;;;13.57;12.18;;;;;;;;;;5052187;28;20037;-61
2023/06/15 14:12:45;;;;;;;11.65;10.45;;;;;;;;;;5051014;28;20536;-61
2023/06/15 14:15:11;;;;;;;12.60;11.30;;;;;;;;;;5051245;28;20033;-61
2023/06/15 14:17:36;;;;;;;12.75;10.90;;;;;;;;;;5052284;28;20472;-61
2023/06/15 14:20:02;;;;;;;11.02;9.40;;;;;;;;;;5051992;28;20064;-61
2023/06/15 14:22:28;;;;;;;11.90;9.70;;;;;;;;;;5051505;28;20079;-61
2023/06/15 14:24:53;;;;;;;9.68;8.45;;;;;;;;;;5033774;28;20102;-61
2023/06/15 14:27:18;;;;;;;12.25;10.13;;;;;;;;;;5051507;28;20033;-60
2023/06/15 14:29:46;;;;;;;10.48;9.38;;;;;;;;;;5051274;28;20056;-61
2023/06/15 14:32:14;;;;;;;12.70;11.40;;;;;;;;;;5051435;28;20068;-61